createdAt,value
2018-08-07T00:01:39.732Z,101067.06
2018-08-07T00:04:07.084Z,101056.66
2018-08-07T00:06:34.374Z,101053.42
2018-08-07T00:09:01.510Z,101051.94
2018-08-07T00:11:28.903Z,101051.87
2018-08-07T00:13:56.023Z,101048.02
2018-08-07T00:16:23.232Z,101047.08
2018-08-07T00:18:50.841Z,101049.13
2018-08-07T00:21:17.959Z,101046.55
2018-08-07T00:23:45.193Z,101046.36
2018-08-07T00:26:12.396Z,101043.08
2018-08-07T00:28:39.634Z,101040.16
2018-08-07T00:31:06.955Z,101039.41
2018-08-07T00:33:34.177Z,101035.62
2018-08-07T00:36:01.397Z,101037.80
2018-08-07T00:38:28.588Z,101038.17
2018-08-07T00:40:55.915Z,101041.84
2018-08-07T00:43:23.036Z,101033.45
2018-08-07T00:45:50.226Z,101027.27
2018-08-07T00:48:17.460Z,101024.38
2018-08-07T00:50:44.562Z,101029.84
2018-08-07T00:53:11.811Z,101023.33
2018-08-07T00:55:39.016Z,101021.72
2018-08-07T00:58:06.207Z,101017.64
2018-08-07T01:00:33.463Z,101020.57
2018-08-07T01:03:00.997Z,101012.77
2018-08-07T01:05:29.076Z,101009.97
2018-08-07T01:07:56.203Z,101006.72
2018-08-07T01:10:23.401Z,101003.97
2018-08-07T01:12:50.600Z,101000.57
2018-08-07T01:15:19.389Z,100994.25
2018-08-07T01:17:46.967Z,100998.58
2018-08-07T01:20:16.295Z,100997.13
2018-08-07T01:22:44.293Z,100998.28
2018-08-07T01:25:13.994Z,100994.36
2018-08-07T01:27:41.158Z,100987.55
2018-08-07T01:30:11.035Z,100979.86
2018-08-07T01:32:38.321Z,100988.23
2018-08-07T01:35:05.488Z,100981.82
2018-08-07T01:37:32.701Z,100981.56
2018-08-07T01:40:00.007Z,100977.98
2018-08-07T01:42:27.244Z,100977.05
2018-08-07T01:44:54.384Z,100982.52
2018-08-07T01:47:21.965Z,100973.77
2018-08-07T01:49:49.159Z,100974.50
2018-08-07T01:52:16.284Z,100970.72
2018-08-07T01:54:43.556Z,100973.77
2018-08-07T01:57:10.688Z,100973.38
2018-08-07T01:59:37.815Z,100970.45
2018-08-07T02:02:05.128Z,100970.38
2018-08-07T02:04:32.289Z,100964.47
2018-08-07T02:06:59.571Z,100964.90
2018-08-07T02:09:26.736Z,100968.55
2018-08-07T02:11:53.899Z,100971.21
2018-08-07T02:14:21.115Z,100960.80
2018-08-07T02:16:48.284Z,100966.84
2018-08-07T02:19:16.334Z,100962.22
2018-08-07T02:21:43.497Z,100965.87
2018-08-07T02:24:10.696Z,100963.58
2018-08-07T02:26:39.896Z,100960.58
2018-08-07T02:29:07.030Z,100962.77
2018-08-07T02:31:34.388Z,100958.32
2018-08-07T02:34:01.504Z,100958.78
2018-08-07T02:36:28.646Z,100953.57
2018-08-07T02:38:55.924Z,100950.98
2018-08-07T02:41:23.064Z,100945.66
2018-08-07T02:43:50.304Z,100953.42
2018-08-07T02:46:17.476Z,100939.91
2018-08-07T02:48:44.597Z,100938.28
2018-08-07T02:51:11.801Z,100934.84
2018-08-07T02:53:38.980Z,100940.41
2018-08-07T02:56:06.240Z,100934.70
2018-08-07T02:58:33.383Z,100930.88
2018-08-07T03:01:00.620Z,100936.89
2018-08-07T03:03:27.829Z,100934.34
2018-08-07T03:05:55.002Z,100930.02
2018-08-07T03:08:22.258Z,100932.91
2018-08-07T03:10:49.431Z,100932.85
2018-08-07T03:13:16.579Z,100941.22
2018-08-07T03:15:44.195Z,100934.34
2018-08-07T03:18:34.106Z,100934.52
2018-08-07T03:21:01.357Z,100927.97
2018-08-07T03:23:28.528Z,100932.75
2018-08-07T03:25:55.743Z,100931.41
2018-08-07T03:28:22.976Z,100933.36
2018-08-07T03:30:50.107Z,100934.48
2018-08-07T03:33:17.299Z,100931.17
2018-08-07T03:35:44.563Z,100934.91
2018-08-07T03:38:11.767Z,100932.95
2018-08-07T03:40:39.087Z,100935.05
2018-08-07T03:43:06.368Z,100939.60
2018-08-07T03:45:33.574Z,100943.43
2018-08-07T03:48:00.719Z,100943.02
2018-08-07T03:50:28.333Z,100946.80
2018-08-07T03:52:55.606Z,100942.88
2018-08-07T03:55:22.761Z,100943.79
2018-08-07T03:57:50.017Z,100950.12
2018-08-07T04:00:20.876Z,100942.31
2018-08-07T04:02:48.095Z,100948.58
2018-08-07T04:05:15.470Z,100944.09
2018-08-07T04:07:42.610Z,100945.12
2018-08-07T04:10:11.339Z,100939.88
2018-08-07T04:12:38.810Z,100941.60
2018-08-07T04:15:07.472Z,100940.74
2018-08-07T04:17:35.045Z,100939.36
2018-08-07T04:20:02.555Z,100944.61
2018-08-07T04:22:29.768Z,100943.73
2018-08-07T04:24:58.941Z,100945.47
2018-08-07T04:27:26.164Z,100946.14
2018-08-07T04:29:53.430Z,100939.05
2018-08-07T04:32:20.596Z,100940.68
2018-08-07T04:34:47.817Z,100942.77
2018-08-07T04:37:34.935Z,100929.31
2018-08-07T04:40:02.208Z,100934.73
2018-08-07T04:42:29.388Z,100931.23
2018-08-07T04:44:56.560Z,100929.23
2018-08-07T04:47:23.755Z,100937.01
2018-08-07T04:49:50.930Z,100929.81
2018-08-07T04:52:18.144Z,100935.66
2018-08-07T04:54:45.680Z,100934.34
2018-08-07T04:57:12.937Z,100942.48
2018-08-07T04:59:40.089Z,100946.95
2018-08-07T05:02:07.380Z,100942.35
2018-08-07T05:04:53.370Z,100943.06
2018-08-07T05:07:20.659Z,100944.92
2018-08-07T05:09:47.828Z,100948.50
2018-08-07T05:12:15.025Z,100945.67
2018-08-07T05:14:58.442Z,100949.22
2018-08-07T05:17:25.624Z,100944.30
2018-08-07T05:19:52.771Z,100951.28
2018-08-07T05:22:20.838Z,100952.92
2018-08-07T05:24:48.308Z,100956.05
2018-08-07T05:27:16.271Z,100950.59
2018-08-07T05:29:43.552Z,100953.60
2018-08-07T05:32:10.766Z,100950.64
2018-08-07T05:34:37.994Z,100948.11
2018-08-07T05:37:05.270Z,100952.19
2018-08-07T05:39:44.868Z,100955.28
2018-08-07T05:42:12.159Z,100957.76
2018-08-07T05:44:39.381Z,100959.44
2018-08-07T05:47:06.589Z,100953.00
2018-08-07T05:49:33.796Z,100947.98
2018-08-07T05:52:01.008Z,100949.86
2018-08-07T05:54:30.218Z,100955.63
2018-08-07T05:56:57.488Z,100945.85
2018-08-07T05:59:24.771Z,100947.91
2018-08-07T06:01:51.956Z,100950.20
2018-08-07T06:04:19.279Z,100952.01
2018-08-07T06:06:46.501Z,100947.83
2018-08-07T06:09:13.843Z,100948.42
2018-08-07T06:11:41.107Z,100952.42
2018-08-07T06:14:08.278Z,100948.31
2018-08-07T06:16:35.534Z,100950.80
2018-08-07T06:19:02.733Z,100951.94
2018-08-07T06:21:29.976Z,100949.55
2018-08-07T06:23:57.479Z,100946.83
2018-08-07T06:26:25.671Z,100942.24
2018-08-07T06:28:53.156Z,100947.76
2018-08-07T06:31:20.809Z,100943.11
2018-08-07T06:33:48.174Z,100948.00
2018-08-07T06:36:15.651Z,100944.84
2018-08-07T06:38:42.804Z,100951.20
2018-08-07T06:41:10.055Z,100946.83
2018-08-07T06:43:37.506Z,100954.28
2018-08-07T06:46:05.263Z,100947.77
2018-08-07T06:48:32.491Z,100948.44
2018-08-07T06:50:59.709Z,100947.99
2018-08-07T06:53:26.903Z,100943.58
2018-08-07T06:55:54.239Z,100950.55
2018-08-07T06:58:21.455Z,100946.72
2018-08-07T07:00:48.655Z,100938.59
2018-08-07T07:03:15.966Z,100943.09
2018-08-07T07:05:43.144Z,100943.38
2018-08-07T07:08:10.290Z,100942.88
2018-08-07T07:10:37.519Z,100943.89
2018-08-07T07:13:04.806Z,100936.05
2018-08-07T07:15:31.929Z,100938.14
2018-08-07T07:17:59.163Z,100935.27
2018-08-07T07:20:26.321Z,100930.05
2018-08-07T07:22:53.508Z,100923.95
2018-08-07T07:25:20.727Z,100927.14
2018-08-07T07:27:47.881Z,100926.90
2018-08-07T07:30:17.339Z,100923.98
2018-08-07T07:32:45.866Z,100923.59
2018-08-07T07:35:13.404Z,100930.81
2018-08-07T07:37:40.754Z,100922.56
2018-08-07T07:40:07.927Z,100919.23
2018-08-07T07:42:35.603Z,100917.98
2018-08-07T07:45:02.761Z,100917.59
2018-08-07T07:47:30.003Z,100913.34
2018-08-07T07:49:57.148Z,100917.55
2018-08-07T07:52:24.284Z,100914.48
2018-08-07T07:54:51.500Z,100915.91
2018-08-07T07:57:18.701Z,100911.48
2018-08-07T07:59:45.940Z,100908.88
2018-08-07T08:02:13.144Z,100914.09
2018-08-07T08:04:40.276Z,100908.33
2018-08-07T08:07:07.435Z,100909.54
2018-08-07T08:09:34.624Z,100900.63
2018-08-07T08:12:01.905Z,100904.09
2018-08-07T08:14:29.164Z,100904.53
2018-08-07T08:16:56.374Z,100895.75
2018-08-07T08:19:23.550Z,100898.94
2018-08-07T08:21:50.683Z,100891.11
2018-08-07T08:24:17.928Z,100891.45
2018-08-07T08:26:45.122Z,100893.66
2018-08-07T08:29:12.303Z,100895.58
2018-08-07T08:31:39.963Z,100896.79
2018-08-07T08:34:07.103Z,100897.85
2018-08-07T08:36:34.328Z,100900.80
2018-08-07T08:39:01.565Z,100887.95
2018-08-07T08:41:32.662Z,100888.67
2018-08-07T08:43:59.876Z,100888.89
2018-08-07T08:46:27.147Z,100889.57
2018-08-07T08:48:54.964Z,100887.86
2018-08-07T08:51:22.440Z,100888.36
2018-08-07T08:53:49.642Z,100890.02
2018-08-07T08:56:16.817Z,100891.28
2018-08-07T08:58:43.943Z,100884.69
2018-08-07T09:01:11.260Z,100887.72
2018-08-07T09:03:38.463Z,100890.22
2018-08-07T09:06:05.616Z,100879.22
2018-08-07T09:08:35.066Z,100887.43
2018-08-07T09:11:03.139Z,100885.75
2018-08-07T09:13:30.328Z,100879.69
2018-08-07T09:15:57.577Z,100879.29
2018-08-07T09:18:24.697Z,100878.05
2018-08-07T09:20:51.862Z,100865.48
2018-08-07T09:23:19.110Z,100869.89
2018-08-07T09:25:46.739Z,100867.51
2018-08-07T09:28:14.589Z,100871.75
2018-08-07T09:30:41.777Z,100863.53
2018-08-07T09:33:09.111Z,100863.73
2018-08-07T09:35:36.235Z,100860.23
2018-08-07T09:38:03.507Z,100859.63
2018-08-07T09:40:31.792Z,100855.72
2018-08-07T09:42:58.984Z,100852.20
2018-08-07T09:45:28.591Z,100851.29
2018-08-07T09:47:55.770Z,100851.72
2018-08-07T09:50:22.976Z,100846.41
2018-08-07T09:52:50.405Z,100837.91
2018-08-07T09:55:17.563Z,100833.09
2018-08-07T09:57:44.803Z,100836.11
2018-08-07T10:00:23.985Z,100836.58
2018-08-07T10:02:53.516Z,100840.94
2018-08-07T10:05:22.373Z,100836.54
2018-08-07T10:07:49.987Z,100839.19
2018-08-07T10:10:17.390Z,100825.27
2018-08-07T10:12:44.979Z,100825.62
2018-08-07T10:15:12.571Z,100817.63
2018-08-07T10:17:39.745Z,100815.14
2018-08-07T10:20:08.341Z,100815.47
2018-08-07T10:22:35.594Z,100819.91
2018-08-07T10:25:03.363Z,100811.80
2018-08-07T10:27:30.860Z,100808.41
2018-08-07T10:29:58.018Z,100803.75
2018-08-07T10:32:25.318Z,100808.13
2018-08-07T10:34:52.479Z,100805.09
2018-08-07T10:37:19.814Z,100806.72
2018-08-07T10:39:47.699Z,100796.09
2018-08-07T10:42:14.941Z,100791.38
2018-08-07T10:44:42.227Z,100796.66
2018-08-07T10:47:09.487Z,100787.73
2018-08-07T10:49:36.649Z,100789.03
2018-08-07T10:52:03.988Z,100778.86
2018-08-07T10:54:31.251Z,100780.88
2018-08-07T10:56:58.550Z,100777.01
2018-08-07T10:59:26.032Z,100782.91
2018-08-07T11:01:53.183Z,100772.36
2018-08-07T11:04:20.446Z,100770.75
2018-08-07T11:06:47.638Z,100769.05
2018-08-07T11:09:14.865Z,100770.57
2018-08-07T11:11:42.024Z,100765.55
2018-08-07T11:14:09.229Z,100766.36
2018-08-07T11:16:36.480Z,100760.28
2018-08-07T11:19:03.756Z,100763.55
2018-08-07T11:21:31.073Z,100758.91
2018-08-07T11:23:58.225Z,100760.53
2018-08-07T11:26:25.431Z,100750.98
2018-08-07T11:28:52.712Z,100751.14
2018-08-07T11:31:19.943Z,100748.82
2018-08-07T11:33:47.095Z,100752.58
2018-08-07T11:36:14.563Z,100751.17
2018-08-07T11:38:41.735Z,100748.59
2018-08-07T11:41:10.413Z,100745.02
2018-08-07T11:43:37.706Z,100739.86
2018-08-07T11:46:05.398Z,100738.75
2018-08-07T11:48:32.669Z,100735.54
2018-08-07T11:50:59.840Z,100732.19
2018-08-07T11:53:27.547Z,100735.72
2018-08-07T11:55:54.833Z,100718.22
2018-08-07T11:58:22.130Z,100724.41
2018-08-07T12:00:49.457Z,100725.59
2018-08-07T12:03:16.636Z,100721.33
2018-08-07T12:05:44.313Z,100718.77
2018-08-07T12:08:11.524Z,100719.70
2018-08-07T12:10:38.804Z,100718.89
2018-08-07T12:13:06.173Z,100714.27
2018-08-07T12:15:34.486Z,100712.29
2018-08-07T12:18:02.064Z,100715.64
2018-08-07T12:20:29.344Z,100702.09
2018-08-07T12:22:56.617Z,100698.61
2018-08-07T12:25:23.852Z,100696.64
2018-08-07T12:27:51.279Z,100688.16
2018-08-07T12:30:28.487Z,100688.70
2018-08-07T12:32:56.121Z,100692.84
2018-08-07T12:35:23.337Z,100685.34
2018-08-07T12:37:50.538Z,100680.12
2018-08-07T12:40:20.927Z,100681.08
2018-08-07T12:42:48.563Z,100678.64
2018-08-07T12:45:15.767Z,100682.60
2018-08-07T12:47:43.677Z,100676.05
2018-08-07T12:50:12.216Z,100671.22
2018-08-07T12:52:39.883Z,100670.45
2018-08-07T12:55:10.040Z,100663.86
2018-08-07T12:57:37.327Z,100661.95
2018-08-07T13:00:09.758Z,100658.59
2018-08-07T13:02:36.978Z,100660.75
2018-08-07T13:05:04.520Z,100655.33
2018-08-07T13:07:31.715Z,100650.06
2018-08-07T13:09:59.360Z,100648.73
2018-08-07T13:12:26.693Z,100640.60
2018-08-07T13:14:53.978Z,100644.11
2018-08-07T13:17:21.441Z,100645.89
2018-08-07T13:19:48.635Z,100643.30
2018-08-07T13:22:15.848Z,100636.42
2018-08-07T13:24:43.495Z,100635.02
2018-08-07T13:27:10.869Z,100634.13
2018-08-07T13:29:38.209Z,100628.19
2018-08-07T13:32:05.787Z,100624.58
2018-08-07T13:34:33.105Z,100623.37
2018-08-07T13:37:00.385Z,100620.92
2018-08-07T13:39:27.689Z,100616.53
2018-08-07T13:41:55.226Z,100627.70
2018-08-07T13:44:22.563Z,100628.48
2018-08-07T13:46:49.836Z,100632.56
2018-08-07T13:49:17.036Z,100617.80
2018-08-07T13:51:44.707Z,100620.31
2018-08-07T13:54:12.192Z,100615.28
2018-08-07T13:56:42.806Z,100615.60
2018-08-07T13:59:10.111Z,100610.24
2018-08-07T14:01:37.298Z,100605.99
2018-08-07T14:04:04.565Z,100602.31
2018-08-07T14:06:32.132Z,100598.49
2018-08-07T14:08:59.343Z,100599.51
2018-08-07T14:11:26.652Z,100606.23
2018-08-07T14:13:53.885Z,100600.41
2018-08-07T14:16:21.296Z,100598.27
2018-08-07T14:18:48.633Z,100603.36
2018-08-07T14:21:15.851Z,100598.70
2018-08-07T14:23:43.884Z,100602.23
2018-08-07T14:26:11.129Z,100591.95
2018-08-07T14:28:38.400Z,100591.80
2018-08-07T14:31:07.939Z,100591.21
2018-08-07T14:33:35.187Z,100592.08
2018-08-07T14:36:02.631Z,100589.78
2018-08-07T14:38:29.980Z,100592.45
2018-08-07T14:40:57.173Z,100585.69
2018-08-07T14:43:24.602Z,100580.94
2018-08-07T14:45:51.916Z,100578.13
2018-08-07T14:48:19.174Z,100574.48
2018-08-07T14:50:46.478Z,100578.20
2018-08-07T14:53:14.477Z,100575.27
2018-08-07T14:55:41.936Z,100573.73
2018-08-07T14:58:09.209Z,100572.59
2018-08-07T15:00:36.564Z,100573.55
2018-08-07T15:03:04.093Z,100569.48
2018-08-07T15:05:31.404Z,100571.84
2018-08-07T15:07:58.807Z,100559.07
2018-08-07T15:10:27.039Z,100565.77
2018-08-07T15:12:55.454Z,100562.91
2018-08-07T15:15:25.520Z,100559.53
2018-08-07T15:17:52.784Z,100560.69
2018-08-07T15:20:22.069Z,100558.67
2018-08-07T15:22:50.202Z,100563.01
2018-08-07T15:25:18.251Z,100559.73
2018-08-07T15:27:45.699Z,100560.55
2018-08-07T15:30:15.914Z,100556.66
2018-08-07T15:32:44.409Z,100555.57
2018-08-07T15:35:20.241Z,100551.92
2018-08-07T15:37:47.667Z,100542.97
2018-08-07T15:40:15.639Z,100544.00
2018-08-07T15:42:43.967Z,100540.62
2018-08-07T15:45:12.292Z,100540.22
2018-08-07T15:47:39.572Z,100539.56
2018-08-07T15:50:12.351Z,100543.50
2018-08-07T15:52:40.331Z,100539.07
2018-08-07T15:55:08.254Z,100534.98
2018-08-07T15:57:35.559Z,100531.92
2018-08-07T16:00:04.072Z,100530.83
2018-08-07T16:02:31.536Z,100534.39
2018-08-07T16:04:58.848Z,100529.00
2018-08-07T16:07:26.210Z,100524.80
2018-08-07T16:09:53.926Z,100530.19
2018-08-07T16:12:21.342Z,100520.91
2018-08-07T16:14:48.582Z,100528.11
2018-08-07T16:17:15.752Z,100524.20
2018-08-07T16:19:43.280Z,100522.92
2018-08-07T16:22:10.598Z,100521.77
2018-08-07T16:24:37.982Z,100517.85
2018-08-07T16:27:05.603Z,100517.48
2018-08-07T16:29:33.240Z,100511.63
2018-08-07T16:32:00.828Z,100515.13
2018-08-07T16:34:28.266Z,100511.67
2018-08-07T16:36:55.713Z,100516.03
2018-08-07T16:39:23.095Z,100510.83
2018-08-07T16:41:50.478Z,100513.14
2018-08-07T16:44:17.954Z,100510.11
2018-08-07T16:46:45.389Z,100507.47
2018-08-07T16:49:12.789Z,100512.23
2018-08-07T16:51:41.148Z,100509.22
2018-08-07T16:54:09.039Z,100504.23
2018-08-07T16:56:36.840Z,100501.65
2018-08-07T16:59:04.188Z,100499.39
2018-08-07T17:01:31.503Z,100507.80
2018-08-07T17:03:58.932Z,100510.07
2018-08-07T17:06:26.238Z,100511.44
2018-08-07T17:08:53.845Z,100513.08
2018-08-07T17:11:21.288Z,100504.47
2018-08-07T17:13:48.501Z,100510.95
2018-08-07T17:16:15.675Z,100511.28
2018-08-07T17:18:43.421Z,100507.13
2018-08-07T17:21:10.814Z,100502.67
2018-08-07T17:23:38.177Z,100510.20
2018-08-07T17:26:05.583Z,100494.50
2018-08-07T17:28:33.787Z,100499.05
2018-08-07T17:31:01.280Z,100502.47
2018-08-07T17:33:28.853Z,100500.00
2018-08-07T17:35:56.254Z,100497.86
2018-08-07T17:38:23.632Z,100502.15
2018-08-07T17:40:51.088Z,100501.34
2018-08-07T17:43:18.499Z,100498.51
2018-08-07T17:45:45.841Z,100500.39
2018-08-07T17:48:13.340Z,100496.19
2018-08-07T17:50:41.112Z,100497.38
2018-08-07T17:53:08.409Z,100497.09
2018-08-07T17:55:35.808Z,100498.97
2018-08-07T17:58:04.384Z,100506.88
2018-08-07T18:00:31.668Z,100496.86
2018-08-07T18:02:59.179Z,100503.66
2018-08-07T18:05:29.797Z,100504.73
2018-08-07T18:07:57.907Z,100511.90
2018-08-07T18:10:26.429Z,100514.28
2018-08-07T18:12:53.892Z,100510.91
2018-08-07T18:15:22.262Z,100516.01
2018-08-07T18:17:49.914Z,100510.42
2018-08-07T18:20:20.329Z,100516.41
2018-08-07T18:22:47.984Z,100515.19
2018-08-07T18:25:15.261Z,100509.62
2018-08-07T18:27:42.657Z,100509.95
2018-08-07T18:30:14.320Z,100510.66
2018-08-07T18:32:43.149Z,100517.73
2018-08-07T18:35:15.255Z,100519.26
2018-08-07T18:37:42.662Z,100514.14
2018-08-07T18:40:14.416Z,100516.02
2018-08-07T18:42:43.052Z,100514.66
2018-08-07T18:45:13.608Z,100517.98
2018-08-07T18:47:41.826Z,100520.33
2018-08-07T18:50:12.568Z,100511.02
2018-08-07T18:52:40.275Z,100509.13
2018-08-07T18:55:11.163Z,100519.30
2018-08-07T18:57:42.311Z,100521.13
2018-08-07T19:00:12.379Z,100519.91
2018-08-07T19:02:40.982Z,100521.42
2018-08-07T19:05:09.601Z,100515.90
2018-08-07T19:07:39.908Z,100525.89
2018-08-07T19:10:10.201Z,100516.67
2018-08-07T19:12:37.675Z,100531.19
2018-08-07T19:15:05.904Z,100530.64
2018-08-07T19:17:33.538Z,100531.54
2018-08-07T19:20:06.099Z,100531.48
2018-08-07T19:22:33.439Z,100527.78
2018-08-07T19:25:01.018Z,100527.73
2018-08-07T19:27:28.330Z,100534.03
2018-08-07T19:29:56.463Z,100531.16
2018-08-07T19:32:24.562Z,100536.03
2018-08-07T19:34:55.582Z,100525.74
2018-08-07T19:37:23.733Z,100529.91
2018-08-07T19:39:53.217Z,100534.61
2018-08-07T19:42:22.616Z,100531.91
2018-08-07T19:44:51.497Z,100534.52
2018-08-07T19:47:19.067Z,100534.72
2018-08-07T19:50:57.955Z,100531.81
2018-08-07T19:53:26.039Z,100531.27
2018-08-07T19:55:53.793Z,100531.27
2018-08-07T19:58:21.557Z,100537.44
2018-08-07T20:00:48.919Z,100536.04
2018-08-07T20:03:17.193Z,100536.95
2018-08-07T20:05:54.816Z,100534.63
2018-08-07T20:08:24.341Z,100539.03
2018-08-07T20:10:52.646Z,100532.22
2018-08-07T20:13:20.600Z,100535.78
2018-08-07T20:15:48.200Z,100532.04
2018-08-07T20:18:16.055Z,100534.85
2018-08-07T20:20:47.063Z,100536.81
2018-08-07T20:23:15.004Z,100542.58
2018-08-07T20:25:43.149Z,100540.95
2018-08-07T20:28:10.592Z,100537.58
2018-08-07T20:30:37.933Z,100531.53
2018-08-07T20:33:05.275Z,100528.83
2018-08-07T20:35:32.515Z,100537.81
2018-08-07T20:38:00.262Z,100538.17
2018-08-07T20:40:27.857Z,100539.74
2018-08-07T20:42:56.795Z,100536.47
2018-08-07T20:45:24.321Z,100528.02
2018-08-07T20:47:51.669Z,100534.27
2018-08-07T20:50:21.251Z,100539.03
2018-08-07T20:52:49.744Z,100536.19
2018-08-07T20:55:17.247Z,100531.02
2018-08-07T20:57:45.002Z,100535.16
2018-08-07T21:00:19.016Z,100529.13
2018-08-07T21:02:46.633Z,100528.61
2018-08-07T21:05:13.998Z,100532.63
2018-08-07T21:07:41.804Z,100536.92
2018-08-07T21:10:12.245Z,100536.16
2018-08-07T21:12:40.876Z,100535.81
2018-08-07T21:15:08.569Z,100531.25
2018-08-07T21:17:36.237Z,100544.83
2018-08-07T21:20:04.887Z,100544.12
2018-08-07T21:22:32.214Z,100547.84
2018-08-07T21:24:59.589Z,100553.89
2018-08-07T21:27:26.813Z,100549.55
2018-08-07T21:29:53.951Z,100548.92
2018-08-07T21:32:21.645Z,100548.30
2018-08-07T21:34:54.454Z,100548.27
2018-08-07T21:37:22.120Z,100547.50
2018-08-07T21:39:49.483Z,100547.49
2018-08-07T21:42:16.832Z,100542.89
2018-08-07T21:44:44.069Z,100545.92
2018-08-07T21:47:11.364Z,100542.83
2018-08-07T21:49:38.597Z,100541.12
2018-08-07T21:52:06.545Z,100535.95
2018-08-07T21:54:33.791Z,100542.29
2018-08-07T21:57:01.229Z,100540.00
2018-08-07T21:59:28.819Z,100539.22
2018-08-07T22:01:56.266Z,100541.12
2018-08-07T22:04:23.441Z,100539.47
2018-08-07T22:06:51.053Z,100537.08
2018-08-07T22:09:18.328Z,100545.27
2018-08-07T22:11:45.659Z,100545.88
2018-08-07T22:14:13.032Z,100541.61
2018-08-07T22:16:40.317Z,100543.22
2018-08-07T22:19:07.683Z,100538.02
2018-08-07T22:21:35.211Z,100535.64
2018-08-07T22:24:02.518Z,100533.86
2018-08-07T22:26:29.724Z,100532.05
2018-08-07T22:28:57.096Z,100539.43
2018-08-07T22:31:24.683Z,100534.92
2018-08-07T22:33:52.372Z,100538.94
2018-08-07T22:36:19.779Z,100538.58
2018-08-07T22:38:46.992Z,100538.21
2018-08-07T22:41:14.201Z,100539.94
2018-08-07T22:43:41.456Z,100547.75
2018-08-07T22:46:08.689Z,100543.23
2018-08-07T22:48:35.902Z,100538.66
2018-08-07T22:51:03.190Z,100544.77
2018-08-07T22:53:30.441Z,100538.22
2018-08-07T22:55:58.193Z,100543.98
2018-08-07T22:58:25.528Z,100543.27
2018-08-07T23:00:52.757Z,100540.58
2018-08-07T23:03:20.013Z,100545.77
2018-08-07T23:05:47.346Z,100546.05
2018-08-07T23:08:14.944Z,100539.45
2018-08-07T23:10:42.362Z,100536.63
2018-08-07T23:13:09.648Z,100532.11
2018-08-07T23:15:36.848Z,100533.94
2018-08-07T23:18:04.665Z,100524.16
2018-08-07T23:20:36.842Z,100521.96
2018-08-07T23:23:04.053Z,100521.72
2018-08-07T23:25:31.337Z,100525.02
2018-08-07T23:27:58.718Z,100520.78
2018-08-07T23:30:26.024Z,100520.78
2018-08-07T23:32:53.291Z,100517.45
2018-08-07T23:35:20.774Z,100522.74
2018-08-07T23:38:06.060Z,100523.84
2018-08-07T23:40:33.543Z,100519.98
2018-08-07T23:43:01.783Z,100519.86
2018-08-07T23:45:29.366Z,100521.41
2018-08-07T23:47:56.718Z,100518.39
2018-08-07T23:50:36.349Z,100520.84
2018-08-07T23:53:03.617Z,100516.80
2018-08-07T23:55:30.800Z,100519.17
2018-08-07T23:57:58.109Z,100511.47
